Time;durP1;ratioP1;P1;durP2;ratioP2;P2;SDS_P1;SDS_P2;PMS_P1;PMS_P2;Temp;Humidity;BMP_temperature;BMP_pressure;BME280_temperature;BME280_humidity;BME280_pressure;Samples;Min_cycle;Max_cycle;Signal;HPM_P1;HPM_P2
2023/03/23 00:02:07;;;;;;;;;;;14.70;1.00;;;;;;5094492;28;20351;-81
2023/03/23 00:04:50;;;;;;;;;;;14.60;1.00;;;;;;5094837;28;19940;-81
2023/03/23 00:07:32;;;;;;;;;;;14.70;1.00;;;;;;5094450;28;19908;-81
2023/03/23 00:10:14;;;;;;;;;;;14.70;1.00;;;;;;5094388;28;19915;-81
2023/03/23 00:12:41;;;;;;;;;;;14.60;1.00;;;;;;5086630;28;19920;-82
2023/03/23 00:15:08;;;;;;;;;;;14.60;1.00;;;;;;5074486;28;19944;-81
2023/03/23 00:17:33;;;;;;;;;;;14.60;1.00;;;;;;5074473;28;19908;-76
2023/03/23 00:20:04;;;;;;;;;;;14.50;1.00;;;;;;5074413;28;20306;-76
2023/03/23 00:22:30;;;;;;;;;;;14.60;1.00;;;;;;5074049;28;19912;-75
2023/03/23 00:24:56;;;;;;;;;;;14.60;1.00;;;;;;5074307;28;19934;-76
2023/03/23 00:27:22;;;;;;;;;;;14.60;1.00;;;;;;5074315;28;19909;-76
2023/03/23 00:29:52;;;;;;;;;;;14.60;1.00;;;;;;5074002;28;19962;-76
2023/03/23 00:32:26;;;;;;;;;;;14.70;1.00;;;;;;5084966;28;20424;-76
2023/03/23 00:34:52;;;;;;;;;;;14.70;1.00;;;;;;5093922;28;19995;-75
2023/03/23 00:37:19;;;;;;;;;;;14.70;1.00;;;;;;5094394;28;19915;-76
2023/03/23 00:39:46;;;;;;;;;;;14.70;1.00;;;;;;5093790;28;19924;-75
2023/03/23 00:42:16;;;;;;;;;;;14.70;1.00;;;;;;5094086;28;19966;-76
2023/03/23 00:44:49;;;;;;;;;;;14.80;1.00;;;;;;5094356;28;20267;-76
2023/03/23 00:47:46;;;;;;;;;;;14.80;1.00;;;;;;5094370;28;19915;-81
2023/03/23 00:53:15;;;;;;;;;;;14.70;1.00;;;;;;5095743;28;20286;-82
2023/03/23 00:56:07;;;;;;;;;;;14.70;1.00;;;;;;5097918;28;19958;-81
2023/03/23 00:58:44;;;;;;;;;;;14.70;1.00;;;;;;5098438;28;19908;-81
2023/03/23 01:01:09;;;;;;;;;;;14.70;1.00;;;;;;5098376;28;19954;-75
2023/03/23 01:03:38;;;;;;;;;;;14.70;1.00;;;;;;5097868;28;19908;-76
2023/03/23 01:06:08;;;;;;;;;;;14.70;1.00;;;;;;5098175;28;19908;-76
2023/03/23 01:08:45;;;;;;;;;;;14.70;1.00;;;;;;5096593;28;19914;-76
2023/03/23 01:11:12;;;;;;;;;;;14.70;1.00;;;;;;5098045;28;19912;-76
2023/03/23 01:13:37;;;;;;;;;;;14.70;1.00;;;;;;5097619;28;19958;-75
2023/03/23 01:16:08;;;;;;;;;;;14.70;1.00;;;;;;5098284;28;20267;-76
2023/03/23 01:18:33;;;;;;;;;;;14.60;1.00;;;;;;5097652;28;20105;-76
2023/03/23 01:21:03;;;;;;;;;;;14.60;1.00;;;;;;5097904;28;20275;-76
2023/03/23 01:23:29;;;;;;;;;;;14.50;1.00;;;;;;5097534;28;19908;-76
2023/03/23 01:25:58;;;;;;;;;;;14.50;1.00;;;;;;5097493;28;19915;-76
2023/03/23 01:28:24;;;;;;;;;;;14.50;1.00;;;;;;5097720;28;20368;-76
2023/03/23 01:31:03;;;;;;;;;;;14.40;1.00;;;;;;5097421;28;19997;-78
2023/03/23 01:33:32;;;;;;;;;;;14.50;1.00;;;;;;5097273;28;19916;-76
2023/03/23 01:36:03;;;;;;;;;;;14.50;1.00;;;;;;5096013;28;20287;-76
2023/03/23 01:38:32;;;;;;;;;;;14.50;1.00;;;;;;5096943;28;19919;-75
2023/03/23 01:40:58;;;;;;;;;;;14.40;1.00;;;;;;5097553;28;19948;-75
2023/03/23 01:43:23;;;;;;;;;;;14.30;1.00;;;;;;5097193;28;19977;-76
2023/03/23 01:45:49;;;;;;;;;;;14.30;1.00;;;;;;5097392;28;19908;-76
2023/03/23 01:48:20;;;;;;;;;;;14.40;1.00;;;;;;5097481;28;19916;-81
2023/03/23 01:51:01;;;;;;;;;;;14.30;1.00;;;;;;5095759;28;19939;-81
2023/03/23 01:53:37;;;;;;;;;;;14.40;1.00;;;;;;5097037;28;19931;-81
2023/03/23 01:56:32;;;;;;;;;;;14.40;1.00;;;;;;5096972;28;19908;-81
2023/03/23 01:58:58;;;;;;;;;;;14.40;1.00;;;;;;5097246;28;19999;-81
2023/03/23 02:01:26;;;;;;;;;;;14.40;1.00;;;;;;5096947;28;20073;-76
2023/03/23 02:03:54;;;;;;;;;;;14.40;1.00;;;;;;5096323;28;19908;-76
2023/03/23 02:06:20;;;;;;;;;;;14.40;1.00;;;;;;5097028;28;19915;-76
2023/03/23 02:09:02;;;;;;;;;;;14.40;1.00;;;;;;5096442;28;19916;-76
2023/03/23 02:11:32;;;;;;;;;;;14.40;1.00;;;;;;5096532;28;20283;-76
2023/03/23 02:13:57;;;;;;;;;;;14.40;1.00;;;;;;5096856;28;19918;-76
2023/03/23 02:16:32;;;;;;;;;;;14.40;1.00;;;;;;5097237;28;20270;-80
2023/03/23 02:19:00;;;;;;;;;;;14.40;1.00;;;;;;5096523;28;19915;-81
2023/03/23 02:21:44;;;;;;;;;;;14.40;1.00;;;;;;5096434;28;19908;-81
2023/03/23 02:24:30;;;;;;;;;;;14.30;1.00;;;;;;5096188;28;20427;-81
2023/03/23 02:27:31;;;;;;;;;;;14.40;1.00;;;;;;5096698;28;19957;-81
2023/03/23 02:30:08;;;;;;;;;;;14.40;1.00;;;;;;5096350;28;19958;-81
2023/03/23 02:32:59;;;;;;;;;;;14.40;1.00;;;;;;5095214;28;20019;-81
2023/03/23 02:35:55;;;;;;;;;;;14.40;1.00;;;;;;5096583;28;19931;-81
2023/03/23 02:38:43;;;;;;;;;;;14.50;1.00;;;;;;5095660;28;19963;-81
2023/03/23 02:41:10;;;;;;;;;;;14.40;1.00;;;;;;5094589;28;20328;-81
2023/03/23 02:43:44;;;;;;;;;;;14.30;1.00;;;;;;5096265;28;20255;-81
2023/03/23 02:46:26;;;;;;;;;;;14.40;1.00;;;;;;5096237;28;19908;-81
2023/03/23 02:49:03;;;;;;;;;;;14.40;1.00;;;;;;5096232;28;19937;-81
2023/03/23 02:51:46;;;;;;;;;;;14.30;1.00;;;;;;5096133;28;19919;-81
2023/03/23 02:54:13;;;;;;;;;;;14.30;1.00;;;;;;5095595;28;20356;-81
2023/03/23 02:56:57;;;;;;;;;;;14.10;1.00;;;;;;5095794;28;19909;-81
2023/03/23 02:59:25;;;;;;;;;;;14.10;1.00;;;;;;5096085;28;19908;-81
2023/03/23 03:02:19;;;;;;;;;;;14.10;1.00;;;;;;5096046;28;19908;-80
2023/03/23 03:05:16;;;;;;;;;;;13.90;1.00;;;;;;5095839;28;19991;-81
2023/03/23 03:10:45;;;;;;;;;;;13.60;1.00;;;;;;5073154;28;20382;-80
2023/03/23 03:13:25;;;;;;;;;;;13.50;1.00;;;;;;5073424;28;19904;-80
2023/03/23 03:16:02;;;;;;;;;;;13.50;1.00;;;;;;5054904;28;19912;-80
2023/03/23 03:18:31;;;;;;;;;;;13.30;1.00;;;;;;5053880;28;19991;-75
2023/03/23 03:21:02;;;;;;;;;;;13.30;1.00;;;;;;5053001;28;20000;-75
2023/03/23 03:23:28;;;;;;;;;;;13.10;1.00;;;;;;5036200;28;19909;-75
2023/03/23 03:25:57;;;;;;;;;;;13.00;1.00;;;;;;5053445;28;19939;-75
2023/03/23 03:28:23;;;;;;;;;;;13.00;1.00;;;;;;5052855;28;20453;-75
2023/03/23 03:31:04;;;;;;;;;;;12.90;1.00;;;;;;5052891;28;19917;-75
2023/03/23 03:33:33;;;;;;;;;;;12.90;1.00;;;;;;5053384;28;20315;-75
2023/03/23 03:36:00;;;;;;;;;;;12.90;1.00;;;;;;5036214;28;19978;-75
2023/03/23 03:38:41;;;;;;;;;;;12.90;1.00;;;;;;5053670;28;19913;-75
2023/03/23 03:41:08;;;;;;;;;;;13.00;1.00;;;;;;5052652;28;19908;-75
2023/03/23 03:43:34;;;;;;;;;;;12.90;1.00;;;;;;5059127;28;19957;-75
2023/03/23 03:46:00;;;;;;;;;;;12.90;1.00;;;;;;5074571;28;20310;-75
2023/03/23 03:48:38;;;;;;;;;;;12.90;1.00;;;;;;5075140;28;19969;-80
2023/03/23 03:51:38;;;;;;;;;;;12.90;1.00;;;;;;5074669;28;19918;-80
2023/03/23 03:54:20;;;;;;;;;;;12.80;1.00;;;;;;5085878;28;19915;-80
2023/03/23 03:57:02;;;;;;;;;;;12.80;1.00;;;;;;5127501;27;19912;-81
2023/03/23 03:59:50;;;;;;;;;;;12.80;1.00;;;;;;5094624;28;19915;-80
2023/03/23 04:02:19;;;;;;;;;;;12.80;1.00;;;;;;5094735;28;19908;-76
2023/03/23 04:05:14;;;;;;;;;;;12.70;1.00;;;;;;5094902;28;19961;-80
2023/03/23 04:08:07;;;;;;;;;;;12.60;1.00;;;;;;5094516;28;19909;-80
2023/03/23 04:10:47;;;;;;;;;;;12.70;1.00;;;;;;5094862;28;19916;-81
2023/03/23 04:13:14;;;;;;;;;;;12.70;1.00;;;;;;5121101;27;19958;-80
2023/03/23 04:15:50;;;;;;;;;;;12.70;1.00;;;;;;5074210;28;19920;-80
2023/03/23 04:18:20;;;;;;;;;;;12.70;1.00;;;;;;5074780;28;20375;-80
2023/03/23 04:21:02;;;;;;;;;;;12.70;1.00;;;;;;5106771;28;19908;-80
2023/03/23 04:23:38;;;;;;;;;;;12.70;1.00;;;;;;5074361;28;19909;-80
2023/03/23 04:26:14;;;;;;;;;;;12.70;1.00;;;;;;5074122;28;19908;-80
2023/03/23 04:29:15;;;;;;;;;;;12.70;1.00;;;;;;5074390;28;19912;-80
2023/03/23 04:31:56;;;;;;;;;;;12.80;1.00;;;;;;5070860;28;19944;-80
2023/03/23 04:34:22;;;;;;;;;;;12.80;1.00;;;;;;5089137;28;19923;-75
2023/03/23 04:36:47;;;;;;;;;;;12.70;1.00;;;;;;5094417;28;19908;-75
2023/03/23 04:39:13;;;;;;;;;;;12.70;1.00;;;;;;5094180;28;20367;-75
2023/03/23 04:41:39;;;;;;;;;;;12.70;1.00;;;;;;5094068;28;19908;-75
2023/03/23 04:44:05;;;;;;;;;;;12.70;1.00;;;;;;5094042;28;20401;-75
2023/03/23 04:46:32;;;;;;;;;;;12.70;1.00;;;;;;5094321;28;20256;-75
2023/03/23 04:49:09;;;;;;;;;;;12.70;1.00;;;;;;5094356;28;19909;-81
2023/03/23 04:51:44;;;;;;;;;;;12.60;1.00;;;;;;5075920;28;20295;-81
2023/03/23 04:54:20;;;;;;;;;;;12.50;1.00;;;;;;5093747;28;20386;-80
2023/03/23 04:57:02;;;;;;;;;;;12.50;1.00;;;;;;5075873;28;19939;-81
2023/03/23 04:59:27;;;;;;;;;;;12.50;1.00;;;;;;5075884;28;19908;-81
2023/03/23 05:01:56;;;;;;;;;;;12.60;1.00;;;;;;5094255;28;19934;-80
2023/03/23 05:04:22;;;;;;;;;;;12.70;1.00;;;;;;5094249;28;20283;-75
2023/03/23 05:06:48;;;;;;;;;;;12.60;1.00;;;;;;5094120;28;19938;-76
2023/03/23 05:09:20;;;;;;;;;;;12.70;1.00;;;;;;5093842;28;19908;-76
2023/03/23 05:11:45;;;;;;;;;;;12.70;1.00;;;;;;5094028;28;19919;-75
2023/03/23 05:14:11;;;;;;;;;;;12.70;1.00;;;;;;5093222;28;19995;-76
2023/03/23 05:16:37;;;;;;;;;;;12.70;1.00;;;;;;5094095;28;20329;-76
2023/03/23 05:19:08;;;;;;;;;;;12.70;1.00;;;;;;5094067;28;19995;-75
2023/03/23 05:21:34;;;;;;;;;;;12.70;1.00;;;;;;5093875;28;19908;-76
2023/03/23 05:24:00;;;;;;;;;;;12.80;1.00;;;;;;5093901;28;19915;-76
2023/03/23 05:26:32;;;;;;;;;;;12.70;1.00;;;;;;5093645;28;19908;-76
2023/03/23 05:28:58;;;;;;;;;;;12.70;1.00;;;;;;5093623;28;19946;-76
2023/03/23 05:31:24;;;;;;;;;;;12.70;1.00;;;;;;5093913;28;19931;-76
2023/03/23 05:33:56;;;;;;;;;;;12.80;1.00;;;;;;5088247;28;19916;-81
2023/03/23 05:36:44;;;;;;;;;;;12.80;1.00;;;;;;5093688;28;19908;-81
2023/03/23 05:39:14;;;;;;;;;;;12.80;1.00;;;;;;5094689;28;19935;-80
2023/03/23 05:47:46;;;;;;;;;;;12.80;1.00;;;;;;5097671;28;20036;-85
2023/03/23 05:50:14;;;;;;;;;;;12.80;1.00;;;;;;5098251;28;19908;-85
2023/03/23 06:04:57;;;;;;;;;;;12.80;1.00;;;;;;5088653;28;19920;-82
2023/03/23 06:07:32;;;;;;;;;;;12.80;1.00;;;;;;5075412;28;19915;-82
2023/03/23 06:10:02;;;;;;;;;;;12.80;1.00;;;;;;5076737;28;19915;-83
2023/03/23 06:15:31;;;;;;;;;;;12.90;1.00;;;;;;5096511;28;19923;-82
2023/03/23 06:21:00;;;;;;;;;;;12.90;1.00;;;;;;5096118;28;20386;-84
2023/03/23 06:23:45;;;;;;;;;;;12.80;1.00;;;;;;5095560;28;19908;-84
2023/03/23 06:26:21;;;;;;;;;;;12.90;1.00;;;;;;5075172;28;19915;-82
2023/03/23 06:31:52;;;;;;;;;;;12.90;1.00;;;;;;5096215;28;19927;-85
2023/03/23 06:37:21;;;;;;;;;;;12.80;1.00;;;;;;5096279;28;19958;-84
2023/03/23 06:42:49;;;;;;;;;;;13.00;1.00;;;;;;5096390;28;19989;-85
2023/03/23 06:45:38;;;;;;;;;;;13.10;1.00;;;;;;5094694;28;19926;-84
2023/03/23 06:48:38;;;;;;;;;;;13.00;1.00;;;;;;5096726;28;19939;-85
2023/03/23 06:54:07;;;;;;;;;;;13.10;1.00;;;;;;5095833;28;19959;-82
2023/03/23 06:56:38;;;;;;;;;;;13.20;1.00;;;;;;5095754;28;19908;-83
2023/03/23 07:02:09;;;;;;;;;;;13.40;1.00;;;;;;5095714;28;19942;-82
2023/03/23 07:04:38;;;;;;;;;;;13.40;1.00;;;;;;5094341;28;19919;-82
2023/03/23 07:10:08;;;;;;;;;;;13.30;1.00;;;;;;5086819;28;20433;-82
2023/03/23 07:12:35;;;;;;;;;;;13.40;1.00;;;;;;5075370;28;19916;-83
2023/03/23 07:18:04;;;;;;;;;;;13.50;1.00;;;;;;5074991;28;19992;-82
2023/03/23 07:20:30;;;;;;;;;;;13.50;1.00;;;;;;5092352;28;20010;-83
2023/03/23 07:29:01;;;;;;;;;;;13.50;1.00;;;;;;5095219;28;19977;-82
2023/03/23 07:37:51;;;;;;;;;;;13.40;1.00;;;;;;5058851;28;19955;-83
2023/03/23 07:43:20;;;;;;;;;;;13.20;1.00;;;;;;5074870;28;19990;-83
2023/03/23 07:48:49;;;;;;;;;;;13.20;1.00;;;;;;5074710;28;19916;-83
2023/03/23 07:51:50;;;;;;;;;;;13.30;1.00;;;;;;5064798;28;20283;-83
2023/03/23 07:57:18;;;;;;;;;;;13.30;1.00;;;;;;5054735;28;19915;-83
2023/03/23 07:59:44;;;;;;;;;;;13.40;1.00;;;;;;5056510;28;20015;-83
2023/03/23 08:05:13;;;;;;;;;;;13.40;1.00;;;;;;5074386;28;19957;-83
2023/03/23 08:10:41;;;;;;;;;;;13.40;1.00;;;;;;5054373;28;20330;-84
2023/03/23 08:16:10;;;;;;;;;;;13.40;1.00;;;;;;5054355;28;19915;-84
2023/03/23 08:21:38;;;;;;;;;;;13.60;1.00;;;;;;5054518;28;19916;-84
2023/03/23 08:24:08;;;;;;;;;;;13.60;1.00;;;;;;5053977;28;19913;-82
2023/03/23 08:27:02;;;;;;;;;;;13.50;1.00;;;;;;5036220;28;19909;-82
2023/03/23 08:32:30;;;;;;;;;;;13.50;1.00;;;;;;5064255;28;19970;-82
2023/03/23 08:35:09;;;;;;;;;;;13.50;1.00;;;;;;5055891;28;19916;-82
2023/03/23 08:40:39;;;;;;;;;;;13.40;1.00;;;;;;5094212;28;19988;-82
2023/03/23 08:43:26;;;;;;;;;;;13.40;1.00;;;;;;5094227;28;19920;-76
2023/03/23 08:46:06;;;;;;;;;;;13.40;1.00;;;;;;5094349;28;19915;-77
2023/03/23 08:52:08;;;;;;;;;;;13.60;1.00;;;;;;5094279;28;19919;-76
2023/03/23 08:54:50;;;;;;;;;;;13.60;1.00;;;;;;5094303;28;19912;-77
2023/03/23 08:57:15;;;;;;;;;;;13.80;1.00;;;;;;5093973;28;19908;-77
2023/03/23 09:00:00;;;;;;;;;;;13.80;1.00;;;;;;5093693;28;19918;-77
2023/03/23 09:02:33;;;;;;;;;;;13.90;1.00;;;;;;5092713;28;19908;-77
2023/03/23 09:05:26;;;;;;;;;;;13.80;1.00;;;;;;5094216;28;20275;-77
2023/03/23 09:07:53;;;;;;;;;;;14.00;1.00;;;;;;5094369;28;19908;-75
2023/03/23 09:10:19;;;;;;;;;;;14.10;1.00;;;;;;5094271;28;20267;-76
2023/03/23 09:12:45;;;;;;;;;;;14.20;1.00;;;;;;5094055;28;19916;-76
2023/03/23 09:15:26;;;;;;;;;;;14.30;1.00;;;;;;5097125;28;20264;-76
2023/03/23 09:17:53;;;;;;;;;;;14.20;1.00;;;;;;5097723;28;19930;-76
2023/03/23 09:20:20;;;;;;;;;;;14.30;1.00;;;;;;5097776;28;20256;-76
2023/03/23 09:23:02;;;;;;;;;;;14.40;1.00;;;;;;5097884;28;20389;-76
2023/03/23 09:28:31;;;;;;;;;;;14.50;1.00;;;;;;5097894;28;19921;-77
2023/03/23 09:34:15;;;;;;;;;;;14.80;1.00;;;;;;5097357;28;19915;-77
2023/03/23 09:37:04;;;;;;;;;;;15.00;1.00;;;;;;5093517;28;19916;-76
2023/03/23 09:39:32;;;;;;;;;;;15.10;1.00;;;;;;5096824;28;19916;-76
2023/03/23 09:42:29;;;;;;;;;;;15.30;1.00;;;;;;5097167;28;19908;-76
2023/03/23 09:45:09;;;;;;;;;;;15.30;1.00;;;;;;5055058;28;19913;-77
2023/03/23 09:47:43;;;;;;;;;;;15.80;1.00;;;;;;5055172;28;19958;-76
2023/03/23 09:53:17;;;;;;;;;;;16.00;1.00;;;;;;5055362;28;19920;-75
2023/03/23 09:55:50;;;;;;;;;;;15.90;1.00;;;;;;5038081;28;19908;-75
2023/03/23 10:01:32;;;;;;;;;;;16.50;1.00;;;;;;5055375;28;19916;-86
2023/03/23 10:07:10;;;;;;;;;;;16.80;1.00;;;;;;5055501;28;19915;-87
2023/03/23 10:09:56;;;;;;;;;;;16.60;1.00;;;;;;5055576;28;19909;-85
2023/03/23 10:12:32;;;;;;;;;;;16.70;1.00;;;;;;5038278;28;19913;-86
2023/03/23 10:15:26;;;;;;;;;;;16.20;1.00;;;;;;5038265;28;20011;-86
2023/03/23 10:18:06;;;;;;;;;;;16.10;1.00;;;;;;5038255;28;19909;-84
2023/03/23 10:23:42;;;;;;;;;;;15.40;1.00;;;;;;5076963;28;19951;-85
2023/03/23 10:26:14;;;;;;;;;;;15.20;1.00;;;;;;5075284;28;19915;-86
2023/03/23 10:34:46;;;;;;;;;;;15.20;1.00;;;;;;5076691;28;20026;-86
2023/03/23 10:37:26;;;;;;;;;;;15.10;1.00;;;;;;5076930;28;19914;-88
2023/03/23 10:40:03;;;;;;;;;;;15.10;1.00;;;;;;5079439;28;20351;-86
2023/03/23 10:45:32;;;;;;;;;;;15.50;1.00;;;;;;5096393;28;19958;-86
2023/03/23 10:48:11;;;;;;;;;;;15.60;1.00;;;;;;5096857;28;19908;-85
2023/03/23 10:50:52;;;;;;;;;;;15.60;1.00;;;;;;5078354;28;20283;-84
2023/03/23 10:53:50;;;;;;;;;;;15.50;1.00;;;;;;5096471;28;19912;-87
2023/03/23 10:56:41;;;;;;;;;;;15.70;1.00;;;;;;5096730;28;19916;-86
2023/03/23 10:59:38;;;;;;;;;;;15.60;1.00;;;;;;5093964;28;20275;-88
2023/03/23 11:02:32;;;;;;;;;;;15.60;1.00;;;;;;5078465;28;19912;-90
2023/03/23 11:05:16;;;;;;;;;;;15.80;1.00;;;;;;5079408;28;19908;-90
2023/03/23 11:10:49;;;;;;;;;;;15.60;1.00;;;;;;5096372;28;20053;-85
2023/03/23 11:16:25;;;;;;;;;;;15.60;1.00;;;;;;5095826;28;19990;-85
2023/03/23 11:18:52;;;;;;;;;;;15.70;1.00;;;;;;5085228;28;19907;-84
2023/03/23 11:21:21;;;;;;;;;;;15.70;1.00;;;;;;5109220;28;20363;-85
2023/03/23 11:26:50;;;;;;;;;;;15.50;1.00;;;;;;5096242;28;19974;-91
2023/03/23 11:29:20;;;;;;;;;;;15.50;1.00;;;;;;5078092;28;19908;-91
2023/03/23 11:34:53;;;;;;;;;;;15.60;1.00;;;;;;5116288;28;20014;-94
2023/03/23 11:37:50;;;;;;;;;;;15.70;1.00;;;;;;5097492;28;19908;-91
2023/03/23 11:40:18;;;;;;;;;;;15.70;1.00;;;;;;5115422;28;19920;-84
2023/03/23 11:46:05;;;;;;;;;;;15.90;1.00;;;;;;5110224;28;19995;-85
2023/03/23 11:48:40;;;;;;;;;;;16.10;1.00;;;;;;5097248;28;19912;-84
2023/03/23 11:51:17;;;;;;;;;;;16.10;1.00;;;;;;5097349;28;19908;-84
2023/03/23 11:56:46;;;;;;;;;;;16.10;1.00;;;;;;5095536;28;20021;-90
2023/03/23 12:02:21;;;;;;;;;;;16.20;1.00;;;;;;5095710;28;19919;-91
2023/03/23 12:08:00;;;;;;;;;;;16.30;1.00;;;;;;5114922;28;19934;-90
2023/03/23 12:10:34;;;;;;;;;;;16.20;1.00;;;;;;5096589;28;19958;-84
2023/03/23 12:13:08;;;;;;;;;;;16.20;1.00;;;;;;5076535;28;19916;-85
2023/03/23 12:16:11;;;;;;;;;;;16.40;1.00;;;;;;5076629;28;19931;-84
2023/03/23 12:34:20;;;;;;;;;;;16.60;1.00;;;;;;5052999;28;19947;-90
2023/03/23 12:37:08;;;;;;;;;;;16.90;1.00;;;;;;4977518;28;19910;-91
2023/03/23 12:52:14;;;;;;;;;;;17.40;1.00;;;;;;5001387;28;19949;-87
2023/03/23 12:58:09;;;;;;;;;;;17.40;1.00;;;;;;5036325;28;19959;-86
2023/03/23 13:03:37;;;;;;;;;;;17.10;1.00;;;;;;5029271;28;19975;-86
2023/03/23 13:06:20;;;;;;;;;;;17.30;1.00;;;;;;5016097;28;20381;-86
2023/03/23 13:08:59;;;;;;;;;;;17.60;1.00;;;;;;5009491;28;19921;-83
2023/03/23 13:11:29;;;;;;;;;;;17.70;1.00;;;;;;5014914;28;19971;-83
2023/03/23 13:14:15;;;;;;;;;;;17.60;1.00;;;;;;5080627;28;20012;-83
2023/03/23 13:17:02;;;;;;;;;;;17.60;1.00;;;;;;5108247;28;19999;-84
2023/03/23 13:19:38;;;;;;;;;;;17.70;1.00;;;;;;5106951;28;19915;-83
2023/03/23 13:25:11;;;;;;;;;;;17.50;1.00;;;;;;5118810;28;19915;-88
2023/03/23 13:27:37;;;;;;;;;;;17.40;1.00;;;;;;5100623;28;19911;-88
2023/03/23 13:30:31;;;;;;;;;;;17.30;1.00;;;;;;5100479;28;20000;-88
2023/03/23 13:45:16;;;;;;;;;;;17.10;1.00;;;;;;5101266;28;19970;-84
2023/03/23 13:47:46;;;;;;;;;;;17.00;1.00;;;;;;5097636;28;20371;-84
2023/03/23 13:50:32;;;;;;;;;;;17.00;1.00;;;;;;5097417;28;20371;-84
2023/03/23 13:53:21;;;;;;;;;;;17.00;1.00;;;;;;5097213;28;20301;-84
2023/03/23 13:56:16;;;;;;;;;;;17.00;1.00;;;;;;5079833;28;19908;-84
2023/03/23 13:58:53;;;;;;;;;;;17.00;1.00;;;;;;5086730;28;19924;-87
2023/03/23 14:01:46;;;;;;;;;;;16.60;1.00;;;;;;5096933;28;19908;-84
2023/03/23 14:04:21;;;;;;;;;;;16.40;1.00;;;;;;5096213;28;20249;-85
2023/03/23 14:06:50;;;;;;;;;;;16.20;1.00;;;;;;5097467;28;19999;-85
2023/03/23 14:09:21;;;;;;;;;;;16.00;1.00;;;;;;5097682;28;19970;-85
2023/03/23 14:14:51;;;;;;;;;;;15.90;1.00;;;;;;5110517;28;19919;-86
2023/03/23 14:17:20;;;;;;;;;;;15.70;1.00;;;;;;5091859;28;19911;-84
2023/03/23 14:20:05;;;;;;;;;;;15.60;1.00;;;;;;5116945;28;20314;-84
2023/03/23 14:22:35;;;;;;;;;;;15.60;1.00;;;;;;5099931;28;20440;-84
2023/03/23 14:31:38;;;;;;;;;;;15.80;1.00;;;;;;5113794;28;19931;-88
2023/03/23 14:37:15;;;;;;;;;;;15.70;1.00;;;;;;5096767;28;19914;-88
2023/03/23 14:39:45;;;;;;;;;;;15.80;1.00;;;;;;5114365;28;19968;-87
2023/03/23 14:45:16;;;;;;;;;;;15.50;1.00;;;;;;5096707;28;19927;-88
2023/03/23 14:50:51;;;;;;;;;;;15.30;1.00;;;;;;5096690;28;19981;-87
2023/03/23 15:05:31;;;;;;;;;;;15.60;1.00;;;;;;5105716;28;20271;-87
2023/03/23 15:14:08;;;;;;;;;;;15.90;1.00;;;;;;5098840;28;19978;-89
2023/03/23 15:19:51;;;;;;;;;;;15.70;1.00;;;;;;5108992;28;19918;-90
2023/03/23 15:25:19;;;;;;;;;;;15.70;1.00;;;;;;5116761;28;19914;-90
2023/03/23 15:28:14;;;;;;;;;;;15.80;1.00;;;;;;5116196;28;20286;-88
2023/03/23 15:37:14;;;;;;;;;;;15.80;1.00;;;;;;5116109;28;19914;-92
2023/03/23 15:42:43;;;;;;;;;;;15.80;1.00;;;;;;5105123;28;20325;-89
2023/03/23 15:51:32;;;;;;;;;;;16.20;1.00;;;;;;5095314;28;19915;-91
2023/03/23 15:57:01;;;;;;;;;;;16.40;1.00;;;;;;5095639;28;19947;-88
2023/03/23 16:02:30;;;;;;;;;;;16.40;1.00;;;;;;5095608;28;19914;-94
2023/03/23 16:07:59;;;;;;;;;;;15.90;1.00;;;;;;5115418;28;19914;-86
2023/03/23 16:16:37;;;;;;;;;;;15.50;1.00;;;;;;5115428;28;19938;-90
2023/03/23 16:19:10;;;;;;;;;;;15.40;1.00;;;;;;5097425;28;19947;-90
2023/03/23 16:27:42;;;;;;;;;;;15.20;1.00;;;;;;5095140;28;20386;-88
2023/03/23 16:30:13;;;;;;;;;;;15.20;1.00;;;;;;5095309;28;19908;-92
2023/03/23 16:36:10;;;;;;;;;;;15.10;1.00;;;;;;5094286;28;20057;-92
2023/03/23 16:39:02;;;;;;;;;;;14.90;1.00;;;;;;5077144;28;19916;-92
2023/03/23 16:44:30;;;;;;;;;;;14.50;1.00;;;;;;5096517;28;20302;-92
2023/03/23 16:47:14;;;;;;;;;;;14.40;1.00;;;;;;5076900;28;20007;-94
2023/03/23 16:50:14;;;;;;;;;;;14.40;1.00;;;;;;5076938;28;19908;-93
2023/03/23 16:55:46;;;;;;;;;;;14.30;1.00;;;;;;5094829;28;20364;-94
2023/03/23 17:01:15;;;;;;;;;;;14.30;1.00;;;;;;5095033;28;20012;-95
2023/03/23 17:06:44;;;;;;;;;;;14.20;1.00;;;;;;5094772;28;19915;-95
2023/03/23 17:12:13;;;;;;;;;;;14.10;1.00;;;;;;5095152;28;19919;-95
2023/03/23 17:17:41;;;;;;;;;;;14.10;1.00;;;;;;5094435;28;19991;-95
2023/03/23 17:23:10;;;;;;;;;;;14.00;1.00;;;;;;5114875;28;20015;-91
2023/03/23 17:28:39;;;;;;;;;;;13.90;1.00;;;;;;5114981;28;19933;-92
2023/03/23 17:34:07;;;;;;;;;;;13.80;1.00;;;;;;5115540;28;19960;-92
2023/03/23 17:42:39;;;;;;;;;;;13.80;1.00;;;;;;5098347;28;19920;-95
2023/03/23 17:48:08;;;;;;;;;;;13.80;1.00;;;;;;5097764;28;19973;-93
2023/03/23 17:50:34;;;;;;;;;;;13.80;1.00;;;;;;5079828;28;19908;-91
2023/03/23 17:53:26;;;;;;;;;;;13.80;1.00;;;;;;5079953;28;19920;-91
2023/03/23 18:01:58;;;;;;;;;;;13.80;1.00;;;;;;5118040;28;19919;-89
2023/03/23 18:07:26;;;;;;;;;;;13.80;1.00;;;;;;5117694;28;19953;-90
2023/03/23 18:10:11;;;;;;;;;;;13.80;1.00;;;;;;5099966;28;19908;-90
2023/03/23 18:15:42;;;;;;;;;;;13.70;1.00;;;;;;5112228;28;20003;-93
2023/03/23 18:21:10;;;;;;;;;;;13.70;1.00;;;;;;5097133;28;19930;-89
2023/03/23 18:26:39;;;;;;;;;;;13.60;1.00;;;;;;5097645;28;20045;-90
2023/03/23 18:32:38;;;;;;;;;;;13.50;1.00;;;;;;5098091;28;20275;-89
2023/03/23 18:38:06;;;;;;;;;;;13.40;1.00;;;;;;5102716;28;20397;-90
2023/03/23 18:40:32;;;;;;;;;;;13.50;1.00;;;;;;5117495;28;19912;-88
2023/03/23 18:49:04;;;;;;;;;;;13.40;1.00;;;;;;5117085;28;20372;-91
2023/03/23 18:57:37;;;;;;;;;;;13.40;1.00;;;;;;5096965;28;20053;-92
2023/03/23 19:03:06;;;;;;;;;;;13.40;1.00;;;;;;5098650;28;19935;-93
2023/03/23 19:05:50;;;;;;;;;;;13.40;1.00;;;;;;5112792;28;20378;-90
2023/03/23 19:08:33;;;;;;;;;;;13.50;1.00;;;;;;5113623;28;19915;-89
2023/03/23 19:17:26;;;;;;;;;;;13.60;1.00;;;;;;5095804;28;20378;-86
2023/03/23 19:25:57;;;;;;;;;;;13.80;1.00;;;;;;5116312;28;20333;-87
2023/03/23 19:31:29;;;;;;;;;;;13.80;1.00;;;;;;5095583;28;20283;-90
2023/03/23 19:36:58;;;;;;;;;;;13.90;1.00;;;;;;5116028;28;20328;-89
2023/03/23 19:42:27;;;;;;;;;;;13.70;1.00;;;;;;5111439;28;20465;-77
2023/03/23 19:44:52;;;;;;;;;;;13.80;1.00;;;;;;5115568;28;19961;-76
2023/03/23 19:47:20;;;;;;;;;;;13.90;1.00;;;;;;5096787;28;19957;-78
2023/03/23 19:49:58;;;;;;;;;;;13.90;1.00;;;;;;5099344;28;19982;-78
2023/03/23 19:52:32;;;;;;;;;;;13.90;1.00;;;;;;5076658;28;19916;-78
2023/03/23 19:55:03;;;;;;;;;;;14.00;1.00;;;;;;5097165;28;19908;-78
2023/03/23 19:57:39;;;;;;;;;;;13.90;1.00;;;;;;5094128;28;19991;-77
2023/03/23 20:00:11;;;;;;;;;;;14.00;1.00;;;;;;5095148;28;19915;-76
2023/03/23 20:02:37;;;;;;;;;;;14.00;1.00;;;;;;5094678;28;19915;-76
2023/03/23 20:05:03;;;;;;;;;;;14.00;1.00;;;;;;5094654;28;19908;-75
2023/03/23 20:07:38;;;;;;;;;;;14.00;1.00;;;;;;5110729;28;20367;-76
2023/03/23 20:10:04;;;;;;;;;;;14.00;1.00;;;;;;5094874;28;20253;-76
2023/03/23 20:12:38;;;;;;;;;;;14.00;1.00;;;;;;5094422;28;19912;-76
2023/03/23 20:15:26;;;;;;;;;;;14.00;1.00;;;;;;5103532;28;19908;-77
2023/03/23 20:17:56;;;;;;;;;;;13.90;1.00;;;;;;5115189;28;19919;-77
2023/03/23 20:20:27;;;;;;;;;;;14.00;1.00;;;;;;5114757;28;19908;-77
2023/03/23 20:22:57;;;;;;;;;;;14.00;1.00;;;;;;5096508;28;19945;-77
2023/03/23 20:25:44;;;;;;;;;;;13.90;1.00;;;;;;5114659;28;20270;-77
2023/03/23 20:28:14;;;;;;;;;;;14.00;1.00;;;;;;5115301;28;19915;-75
2023/03/23 20:31:02;;;;;;;;;;;14.00;1.00;;;;;;5114963;28;19919;-77
2023/03/23 20:33:33;;;;;;;;;;;14.10;1.00;;;;;;5114743;28;20029;-77
2023/03/23 20:36:18;;;;;;;;;;;14.10;1.00;;;;;;5096117;28;19912;-77
2023/03/23 20:38:45;;;;;;;;;;;14.00;1.00;;;;;;5106648;28;19947;-77
2023/03/23 20:41:21;;;;;;;;;;;14.00;1.00;;;;;;5114712;28;19961;-77
2023/03/23 20:43:56;;;;;;;;;;;14.00;1.00;;;;;;5092724;28;19999;-76
2023/03/23 20:46:22;;;;;;;;;;;13.90;1.00;;;;;;5094090;28;19955;-77
2023/03/23 20:48:57;;;;;;;;;;;14.00;1.00;;;;;;5110231;28;19981;-77
2023/03/23 20:51:26;;;;;;;;;;;13.90;1.00;;;;;;5114309;28;19914;-77
2023/03/23 20:53:56;;;;;;;;;;;13.90;1.00;;;;;;5107533;28;19946;-77
2023/03/23 20:56:44;;;;;;;;;;;13.90;1.00;;;;;;5094338;28;19995;-77
2023/03/23 20:59:10;;;;;;;;;;;13.90;1.00;;;;;;5094295;28;19962;-76
2023/03/23 21:01:38;;;;;;;;;;;13.90;1.00;;;;;;5100012;28;19915;-76
2023/03/23 21:04:06;;;;;;;;;;;13.80;1.00;;;;;;5102649;28;19919;-75
2023/03/23 21:06:35;;;;;;;;;;;13.80;1.00;;;;;;5114571;28;20045;-76
2023/03/23 21:09:01;;;;;;;;;;;13.80;1.00;;;;;;5115669;28;19930;-76
2023/03/23 21:11:28;;;;;;;;;;;13.80;1.00;;;;;;5118013;28;19912;-75
2023/03/23 21:13:56;;;;;;;;;;;13.80;1.00;;;;;;5118006;28;20316;-77
2023/03/23 21:16:23;;;;;;;;;;;13.80;1.00;;;;;;5118303;28;19915;-77
2023/03/23 21:18:49;;;;;;;;;;;13.80;1.00;;;;;;5099939;28;19991;-77
2023/03/23 21:21:27;;;;;;;;;;;13.80;1.00;;;;;;5103450;28;19958;-77
2023/03/23 21:23:56;;;;;;;;;;;13.80;1.00;;;;;;5099729;28;19908;-77
2023/03/23 21:26:23;;;;;;;;;;;13.80;1.00;;;;;;5118058;28;19994;-77
2023/03/23 21:28:53;;;;;;;;;;;13.70;1.00;;;;;;5118237;28;19907;-76